![]() |
EMODnet Physics ERDDAP
Easier access to scientific data |
log in|
Brought to you by EMODnet Physics |
| Dataset Title: | NDBC - Collection of dew point temperature (DEWT) TimeSeries - IN SITU MultiPointTimeSeriesObservation
|
| Institution: | NDBC (Dataset ID: TS_DEWT_NDBC) |
| Information: | Summary
| License
| FGDC
| ISO 19115
| Metadata
| Background
| Subset
| Data Access Form
| Make a graph
|
| Name | Last modified | Size | Description | |
|---|---|---|---|---|
| Parent Directory | - | - | ||
| CPXC1_TS_DEWT_012008.nc | 27-Oct-2024 07:21 | 429363 | ||
| CPXC1_TS_DEWT_012009.nc | 27-Oct-2024 07:21 | 429685 | ||
| CPXC1_TS_DEWT_012013.nc | 27-Oct-2024 07:21 | 429679 | ||
| CPXC1_TS_DEWT_012014.nc | 27-Oct-2024 07:21 | 429678 | ||
| CPXC1_TS_DEWT_012015.nc | 27-Oct-2024 07:22 | 429686 | ||
| CPXC1_TS_DEWT_012016.nc | 27-Oct-2024 07:22 | 429686 | ||
| CPXC1_TS_DEWT_012017.nc | 27-Oct-2024 07:22 | 429904 | ||
| CPXC1_TS_DEWT_012018.nc | 27-Oct-2024 07:22 | 429902 | ||
| CPXC1_TS_DEWT_012019.nc | 27-Oct-2024 07:22 | 429885 | ||
| CPXC1_TS_DEWT_012020.nc | 27-Oct-2024 07:22 | 419438 | ||
| CPXC1_TS_DEWT_012021.nc | 27-Oct-2024 07:22 | 429901 | ||
| CPXC1_TS_DEWT_012023.nc | 27-Oct-2024 07:22 | 429904 | ||
| CPXC1_TS_DEWT_012024.nc | 27-Oct-2024 07:22 | 429901 | ||
| CPXC1_TS_DEWT_012025.nc | 07-Feb-2025 14:31 | 421249 | ||
| CPXC1_TS_DEWT_012026.nc | 02-Feb-2026 14:31 | 1143166 | ||
| CPXC1_TS_DEWT_022008.nc | 27-Oct-2024 07:22 | 436497 | ||
| CPXC1_TS_DEWT_022009.nc | 27-Oct-2024 07:22 | 634404 | ||
| CPXC1_TS_DEWT_022012.nc | 27-Oct-2024 07:22 | 1266272 | ||
| CPXC1_TS_DEWT_022013.nc | 27-Oct-2024 07:22 | 1265581 | ||
| CPXC1_TS_DEWT_022014.nc | 27-Oct-2024 07:22 | 1263241 | ||
| CPXC1_TS_DEWT_022016.nc | 27-Oct-2024 07:22 | 425408 | ||
| CPXC1_TS_DEWT_022017.nc | 27-Oct-2024 07:22 | 429326 | ||
| CPXC1_TS_DEWT_022018.nc | 27-Oct-2024 07:22 | 429341 | ||
| CPXC1_TS_DEWT_022019.nc | 27-Oct-2024 07:23 | 429338 | ||
| CPXC1_TS_DEWT_022020.nc | 27-Oct-2024 07:23 | 429337 | ||
| CPXC1_TS_DEWT_022021.nc | 27-Oct-2024 07:23 | 429339 | ||
| CPXC1_TS_DEWT_022022.nc | 27-Oct-2024 07:23 | 429336 | ||
| CPXC1_TS_DEWT_022023.nc | 27-Oct-2024 07:23 | 425994 | ||
| CPXC1_TS_DEWT_022024.nc | 16-Sep-2024 16:51 | 429344 | ||
| CPXC1_TS_DEWT_022025.nc | 01-Mar-2025 09:24 | 418866 | ||
| CPXC1_TS_DEWT_022026.nc | 01-Mar-2026 14:32 | 429358 | ||
| CPXC1_TS_DEWT_032008.nc | 27-Oct-2024 07:23 | 429348 | ||
| CPXC1_TS_DEWT_032009.nc | 27-Oct-2024 07:23 | 425926 | ||
| CPXC1_TS_DEWT_032012.nc | 27-Oct-2024 07:23 | 429360 | ||
| CPXC1_TS_DEWT_032013.nc | 27-Oct-2024 07:23 | 429351 | ||
| CPXC1_TS_DEWT_032014.nc | 27-Oct-2024 07:23 | 429364 | ||
| CPXC1_TS_DEWT_032016.nc | 27-Oct-2024 07:23 | 429360 | ||
| CPXC1_TS_DEWT_032017.nc | 27-Oct-2024 07:23 | 429359 | ||
| CPXC1_TS_DEWT_032018.nc | 27-Oct-2024 07:23 | 429366 | ||
| CPXC1_TS_DEWT_032019.nc | 27-Oct-2024 07:23 | 429361 | ||
| CPXC1_TS_DEWT_032020.nc | 27-Oct-2024 07:23 | 429354 | ||
| CPXC1_TS_DEWT_032022.nc | 27-Oct-2024 07:23 | 429362 | ||
| CPXC1_TS_DEWT_032023.nc | 27-Oct-2024 07:24 | 429349 | ||
| CPXC1_TS_DEWT_032025.nc | 02-Apr-2025 07:32 | 429357 | ||
| CPXC1_TS_DEWT_032026.nc | 21-Mar-2026 16:34 | 429559 | ||
| CPXC1_TS_DEWT_042008.nc | 27-Oct-2024 07:24 | 429562 | ||
| CPXC1_TS_DEWT_042009.nc | 27-Oct-2024 07:24 | 429564 | ||
| CPXC1_TS_DEWT_042012.nc | 27-Oct-2024 07:24 | 420749 | ||
| CPXC1_TS_DEWT_042013.nc | 27-Oct-2024 07:24 | 420824 | ||
| CPXC1_TS_DEWT_042014.nc | 27-Oct-2024 07:24 | 427945 | ||
| CPXC1_TS_DEWT_042015.nc | 27-Oct-2024 07:24 | 429561 | ||
| CPXC1_TS_DEWT_042016.nc | 27-Oct-2024 07:24 | 429562 | ||
| CPXC1_TS_DEWT_042018.nc | 27-Oct-2024 07:24 | 429565 | ||
| CPXC1_TS_DEWT_042019.nc | 27-Oct-2024 07:24 | 1107342 | ||
| CPXC1_TS_DEWT_042020.nc | 27-Oct-2024 07:24 | 994793 | ||
| CPXC1_TS_DEWT_042021.nc | 27-Oct-2024 07:24 | 431413 | ||
| CPXC1_TS_DEWT_042022.nc | 27-Oct-2024 07:24 | 1112381 | ||
| CPXC1_TS_DEWT_042023.nc | 27-Oct-2024 07:24 | 1111500 | ||
| CPXC1_TS_DEWT_042025.nc | 01-May-2025 05:57 | 1112792 | ||
| CPXC1_TS_DEWT_052008.nc | 27-Oct-2024 07:24 | 1110277 | ||
| CPXC1_TS_DEWT_052009.nc | 27-Oct-2024 07:24 | 426069 | ||
| CPXC1_TS_DEWT_052012.nc | 27-Oct-2024 07:24 | 429677 | ||
| CPXC1_TS_DEWT_052013.nc | 27-Oct-2024 07:25 | 429677 | ||
| CPXC1_TS_DEWT_052015.nc | 27-Oct-2024 07:25 | 429675 | ||
| CPXC1_TS_DEWT_052016.nc | 27-Oct-2024 07:25 | 429674 | ||
| CPXC1_TS_DEWT_052018.nc | 27-Oct-2024 07:25 | 429667 | ||
| CPXC1_TS_DEWT_052019.nc | 27-Oct-2024 07:25 | 429669 | ||
| CPXC1_TS_DEWT_052020.nc | 27-Oct-2024 07:25 | 429475 | ||
| CPXC1_TS_DEWT_052021.nc | 27-Oct-2024 07:25 | 429666 | ||
| CPXC1_TS_DEWT_052022.nc | 27-Oct-2024 07:25 | 422616 | ||
| CPXC1_TS_DEWT_052025.nc | 02-Jun-2025 04:44 | 429685 | ||
| CPXC1_TS_DEWT_062008.nc | 27-Oct-2024 07:25 | 426156 | ||
| CPXC1_TS_DEWT_062009.nc | 27-Oct-2024 07:25 | 429680 | ||
| CPXC1_TS_DEWT_062010.nc | 27-Oct-2024 07:25 | 429687 | ||
| CPXC1_TS_DEWT_062012.nc | 27-Oct-2024 07:25 | 419966 | ||
| CPXC1_TS_DEWT_062013.nc | 27-Oct-2024 07:25 | 429636 | ||
| CPXC1_TS_DEWT_062015.nc | 27-Oct-2024 07:25 | 429687 | ||
| CPXC1_TS_DEWT_062016.nc | 27-Oct-2024 07:25 | 429680 | ||
| CPXC1_TS_DEWT_062018.nc | 27-Oct-2024 07:25 | 429679 | ||
| CPXC1_TS_DEWT_062019.nc | 27-Oct-2024 07:25 | 429690 | ||
| CPXC1_TS_DEWT_062020.nc | 27-Oct-2024 07:26 | 429691 | ||
| CPXC1_TS_DEWT_062021.nc | 27-Oct-2024 07:26 | 429680 | ||
| CPXC1_TS_DEWT_062022.nc | 27-Oct-2024 07:26 | 429685 | ||
| CPXC1_TS_DEWT_062023.nc | 27-Oct-2024 07:26 | 429691 | ||
| CPXC1_TS_DEWT_062025.nc | 05-Jun-2025 04:56 | 429678 | ||
| CPXC1_TS_DEWT_072009.nc | 27-Oct-2024 07:26 | 429907 | ||
| CPXC1_TS_DEWT_072010.nc | 27-Oct-2024 07:26 | 429900 | ||
| CPXC1_TS_DEWT_072012.nc | 27-Oct-2024 07:26 | 429907 | ||
| CPXC1_TS_DEWT_072013.nc | 27-Oct-2024 07:26 | 429898 | ||
| CPXC1_TS_DEWT_072015.nc | 27-Oct-2024 07:26 | 429903 | ||
| CPXC1_TS_DEWT_072016.nc | 27-Oct-2024 07:26 | 429902 | ||
| CPXC1_TS_DEWT_072018.nc | 27-Oct-2024 07:26 | 419080 | ||
| CPXC1_TS_DEWT_072019.nc | 27-Oct-2024 07:26 | 426001 | ||
| CPXC1_TS_DEWT_072020.nc | 27-Oct-2024 07:26 | 429902 | ||
| CPXC1_TS_DEWT_072021.nc | 27-Oct-2024 07:26 | 429844 | ||
| CPXC1_TS_DEWT_072022.nc | 27-Oct-2024 07:26 | 1261592 | ||
| CPXC1_TS_DEWT_072023.nc | 27-Oct-2024 07:26 | 1143294 | ||
| CPXC1_TS_DEWT_072025.nc | 16-Aug-2025 05:04 | 904011 | ||
| CPXC1_TS_DEWT_082009.nc | 27-Oct-2024 07:26 | 1104995 | ||
| CPXC1_TS_DEWT_082010.nc | 27-Oct-2024 07:26 | 1260971 | ||
| CPXC1_TS_DEWT_082012.nc | 27-Oct-2024 07:26 | 1263043 | ||
| CPXC1_TS_DEWT_082013.nc | 27-Oct-2024 07:27 | 1263682 | ||
| CPXC1_TS_DEWT_082015.nc | 27-Oct-2024 07:27 | 427206 | ||
| CPXC1_TS_DEWT_082016.nc | 27-Oct-2024 07:27 | 429646 | ||
| CPXC1_TS_DEWT_082018.nc | 27-Oct-2024 07:27 | 429674 | ||
| CPXC1_TS_DEWT_082019.nc | 27-Oct-2024 07:27 | 429676 | ||
| CPXC1_TS_DEWT_082020.nc | 27-Oct-2024 07:27 | 429675 | ||
| CPXC1_TS_DEWT_082022.nc | 27-Oct-2024 07:27 | 429674 | ||
| CPXC1_TS_DEWT_082023.nc | 27-Oct-2024 07:27 | 429672 | ||
| CPXC1_TS_DEWT_082025.nc | 01-Sep-2025 05:40 | 429218 | ||
| CPXC1_TS_DEWT_092007.nc | 27-Oct-2024 07:27 | 429670 | ||
| CPXC1_TS_DEWT_092008.nc | 27-Oct-2024 07:27 | 429688 | ||
| CPXC1_TS_DEWT_092009.nc | 27-Oct-2024 07:27 | 429680 | ||
| CPXC1_TS_DEWT_092012.nc | 27-Oct-2024 07:27 | 429684 | ||
| CPXC1_TS_DEWT_092013.nc | 27-Oct-2024 07:27 | 422643 | ||
| CPXC1_TS_DEWT_092015.nc | 27-Oct-2024 07:27 | 429664 | ||
| CPXC1_TS_DEWT_092016.nc | 27-Oct-2024 07:27 | 429663 | ||
| CPXC1_TS_DEWT_092017.nc | 27-Oct-2024 07:27 | 426719 | ||
| CPXC1_TS_DEWT_092018.nc | 27-Oct-2024 07:28 | 429667 | ||
| CPXC1_TS_DEWT_092019.nc | 27-Oct-2024 07:28 | 429679 | ||
| CPXC1_TS_DEWT_092020.nc | 27-Oct-2024 07:28 | 429686 | ||
| CPXC1_TS_DEWT_092022.nc | 27-Oct-2024 07:28 | 429682 | ||
| CPXC1_TS_DEWT_092023.nc | 27-Oct-2024 07:28 | 429679 | ||
| CPXC1_TS_DEWT_092025.nc | 07-Oct-2025 03:55 | 429690 | ||
| CPXC1_TS_DEWT_102007.nc | 27-Oct-2024 07:28 | 429684 | ||
| CPXC1_TS_DEWT_102008.nc | 27-Oct-2024 07:28 | 429681 | ||
| CPXC1_TS_DEWT_102009.nc | 27-Oct-2024 07:28 | 429686 | ||
| CPXC1_TS_DEWT_102012.nc | 27-Oct-2024 07:28 | 429690 | ||
| CPXC1_TS_DEWT_102013.nc | 27-Oct-2024 07:28 | 429902 | ||
| CPXC1_TS_DEWT_102015.nc | 27-Oct-2024 07:28 | 429904 | ||
| CPXC1_TS_DEWT_102016.nc | 27-Oct-2024 07:28 | 429901 | ||
| CPXC1_TS_DEWT_102017.nc | 27-Oct-2024 07:28 | 429903 | ||
| CPXC1_TS_DEWT_102018.nc | 27-Oct-2024 07:28 | 429901 | ||
| CPXC1_TS_DEWT_102019.nc | 27-Oct-2024 07:28 | 419020 | ||
| CPXC1_TS_DEWT_102020.nc | 27-Oct-2024 07:28 | 429907 | ||
| CPXC1_TS_DEWT_102022.nc | 27-Oct-2024 07:29 | 429903 | ||
| CPXC1_TS_DEWT_102023.nc | 27-Oct-2024 07:29 | 429904 | ||
| CPXC1_TS_DEWT_102024.nc | 12-Jan-2025 21:19 | 1260562 | ||
| CPXC1_TS_DEWT_102025.nc | 01-Nov-2025 05:01 | 1143132 | ||
| CPXC1_TS_DEWT_112007.nc | 27-Oct-2024 07:29 | 903625 | ||
| CPXC1_TS_DEWT_112008.nc | 27-Oct-2024 07:29 | 1260848 | ||
| CPXC1_TS_DEWT_112012.nc | 27-Oct-2024 07:29 | 1263293 | ||
| CPXC1_TS_DEWT_112013.nc | 27-Oct-2024 07:29 | 1267164 | ||
| CPXC1_TS_DEWT_112016.nc | 27-Oct-2024 07:29 | 423606 | ||
| CPXC1_TS_DEWT_112017.nc | 27-Oct-2024 07:29 | 429321 | ||
| CPXC1_TS_DEWT_112018.nc | 27-Oct-2024 07:29 | 429341 | ||
| CPXC1_TS_DEWT_112019.nc | 27-Oct-2024 07:29 | 429318 | ||
| CPXC1_TS_DEWT_112020.nc | 27-Oct-2024 07:29 | 429321 | ||
| CPXC1_TS_DEWT_112022.nc | 27-Oct-2024 07:29 | 429346 | ||
| CPXC1_TS_DEWT_112023.nc | 27-Oct-2024 07:29 | 429341 | ||
| CPXC1_TS_DEWT_112024.nc | 17-Jan-2025 16:28 | 429340 | ||
| CPXC1_TS_DEWT_112025.nc | 30-Nov-2025 07:05 | 425278 | ||
| CPXC1_TS_DEWT_122007.nc | 27-Oct-2024 07:29 | 429334 | ||
| CPXC1_TS_DEWT_122008.nc | 27-Oct-2024 07:29 | 428845 | ||
| CPXC1_TS_DEWT_122012.nc | 27-Oct-2024 07:29 | 426067 | ||
| CPXC1_TS_DEWT_122013.nc | 27-Oct-2024 07:29 | 429351 | ||
| CPXC1_TS_DEWT_122015.nc | 27-Oct-2024 07:30 | 429357 | ||
| CPXC1_TS_DEWT_122016.nc | 27-Oct-2024 07:30 | 429351 | ||
| CPXC1_TS_DEWT_122017.nc | 27-Oct-2024 07:30 | 425468 | ||
| CPXC1_TS_DEWT_122018.nc | 27-Oct-2024 07:30 | 429318 | ||
| CPXC1_TS_DEWT_122019.nc | 27-Oct-2024 07:30 | 429080 | ||
| CPXC1_TS_DEWT_122020.nc | 27-Oct-2024 07:30 | 429356 | ||
| CPXC1_TS_DEWT_122022.nc | 27-Oct-2024 07:30 | 429357 | ||
| CPXC1_TS_DEWT_122023.nc | 27-Oct-2024 07:30 | 429362 | ||
| CPXC1_TS_DEWT_122024.nc | 21-Jan-2025 11:56 | 423345 | ||
| CPXC1_TS_DEWT_122025.nc | 01-Jan-2026 09:19 | 429363 | ||